Time;durP1;ratioP1;P1;durP2;ratioP2;P2;SDS_P1;SDS_P2;PMS_P1;PMS_P2;Temp;Humidity;BMP_temperature;BMP_pressure;BME280_temperature;BME280_humidity;BME280_pressure;Samples;Min_cycle;Max_cycle;Signal;HPM_P1;HPM_P2
2023/06/21 00:00:35;;;;;;;12.88;6.68;;;15.70;99.90;;;;;;5015698;28;20516;-91
2023/06/21 00:03:01;;;;;;;13.18;7.22;;;15.70;99.90;;;;;;5015814;28;20057;-92
2023/06/21 00:05:27;;;;;;;15.05;7.20;;;15.80;99.90;;;;;;5016057;28;20076;-92
2023/06/21 00:07:54;;;;;;;13.95;7.40;;;15.80;99.90;;;;;;5017756;28;20057;-92
2023/06/21 00:10:24;;;;;;;15.45;7.18;;;15.80;99.90;;;;;;5020046;28;20028;-92
2023/06/21 00:12:50;;;;;;;15.70;6.83;;;15.80;99.90;;;;;;5037362;28;20053;-92
2023/06/21 00:15:16;;;;;;;15.07;7.10;;;15.80;99.90;;;;;;5019677;28;20361;-92
2023/06/21 00:17:42;;;;;;;20.80;8.50;;;15.80;99.90;;;;;;5019425;28;20549;-93
2023/06/21 00:20:10;;;;;;;15.93;7.45;;;15.80;99.90;;;;;;5020018;28;20030;-91
2023/06/21 00:22:37;;;;;;;11.90;7.30;;;15.80;99.90;;;;;;5019944;28;20120;-90
2023/06/21 00:25:03;;;;;;;12.02;6.70;;;15.70;99.90;;;;;;5038072;28;20014;-90
2023/06/21 00:27:29;;;;;;;12.25;6.93;;;15.60;99.90;;;;;;5019444;28;20037;-91
2023/06/21 00:29:55;;;;;;;14.30;6.32;;;15.50;99.90;;;;;;5020731;28;20018;-92
2023/06/21 00:32:20;;;;;;;13.77;6.55;;;15.40;99.90;;;;;;5022514;28;20507;-92
2023/06/21 00:34:47;;;;;;;12.07;6.78;;;15.40;99.90;;;;;;5024502;28;20022;-92
2023/06/21 00:37:13;;;;;;;11.10;6.93;;;15.40;99.90;;;;;;5025583;28;20033;-92
2023/06/21 00:39:39;;;;;;;12.77;7.47;;;15.40;99.90;;;;;;5025581;28;20135;-91
2023/06/21 00:42:06;;;;;;;13.55;6.38;;;15.40;99.90;;;;;;5023226;28;20059;-92
2023/06/21 00:44:32;;;;;;;9.55;5.90;;;15.30;99.90;;;;;;5022563;28;20113;-92
2023/06/21 00:46:57;;;;;;;10.88;6.70;;;15.30;99.90;;;;;;5020806;28;20072;-92
2023/06/21 00:49:23;;;;;;;13.88;7.85;;;15.30;99.90;;;;;;5021084;28;20497;-92
2023/06/21 00:51:53;;;;;;;10.95;6.72;;;15.30;99.90;;;;;;5019892;28;20548;-92
2023/06/21 00:54:20;;;;;;;10.82;7.25;;;15.30;99.90;;;;;;5015338;28;20094;-92
2023/06/21 00:56:46;;;;;;;8.70;5.05;;;15.30;99.90;;;;;;5007347;28;20029;-92
2023/06/21 00:59:12;;;;;;;8.95;5.40;;;15.30;99.90;;;;;;5021536;28;20026;-92
2023/06/21 01:01:38;;;;;;;8.02;5.15;;;15.30;99.90;;;;;;5021351;28;20392;-92
2023/06/21 01:04:10;;;;;;;19.77;8.50;;;15.30;99.90;;;;;;5021060;28;20017;-92
2023/06/21 01:06:54;;;;;;;9.07;5.78;;;15.30;99.90;;;;;;5019824;28;20112;-91
2023/06/21 01:09:42;;;;;;;12.00;7.70;;;15.30;99.90;;;;;;5019535;28;20556;-91
2023/06/21 01:12:17;;;;;;;13.57;10.00;;;15.20;99.90;;;;;;5018031;28;20040;-90
2023/06/21 01:14:52;;;;;;;7.85;5.53;;;15.20;99.90;;;;;;5018106;28;20025;-91
2023/06/21 01:17:20;;;;;;;13.48;10.30;;;15.20;99.90;;;;;;5017763;28;20413;-90
2023/06/21 01:19:56;;;;;;;19.65;11.38;;;15.20;99.90;;;;;;5017813;28;20075;-91
2023/06/21 01:22:22;;;;;;;15.30;9.98;;;15.20;99.90;;;;;;5018002;28;20083;-92
2023/06/21 01:25:27;;;;;;;16.10;10.35;;;15.20;99.90;;;;;;5018618;28;20029;-90
2023/06/21 01:27:53;;;;;;;15.88;8.95;;;15.20;99.90;;;;;;5018535;28;20155;-91
2023/06/21 01:30:21;;;;;;;14.98;9.82;;;15.20;99.90;;;;;;5017971;28;20543;-91
2023/06/21 01:32:53;;;;;;;9.50;7.32;;;15.20;99.90;;;;;;5019653;28;20123;-91
2023/06/21 01:35:20;;;;;;;10.18;7.47;;;15.20;99.90;;;;;;5021166;28;20110;-92
2023/06/21 01:37:49;;;;;;;14.43;8.27;;;15.20;99.90;;;;;;5017865;28;20033;-92
2023/06/21 01:40:15;;;;;;;14.68;8.85;;;15.10;99.90;;;;;;5018209;28;20029;-91
2023/06/21 01:42:41;;;;;;;9.27;6.07;;;15.10;99.90;;;;;;5016911;28;20036;-91
2023/06/21 01:45:08;;;;;;;11.88;7.78;;;15.10;99.90;;;;;;5016862;28;20021;-91
2023/06/21 01:47:35;;;;;;;10.32;7.63;;;15.10;99.90;;;;;;5017163;28;20237;-92
2023/06/21 01:50:04;;;;;;;10.15;7.15;;;15.10;99.90;;;;;;5017275;28;20026;-92
2023/06/21 01:52:31;;;;;;;12.85;7.00;;;15.00;99.90;;;;;;5017411;28;20039;-91
2023/06/21 01:54:57;;;;;;;10.18;6.47;;;15.00;99.90;;;;;;5017178;28;20040;-92
2023/06/21 01:57:25;;;;;;;11.98;7.05;;;14.90;99.90;;;;;;5016754;28;20439;-92
2023/06/21 01:59:52;;;;;;;9.40;5.97;;;14.90;99.90;;;;;;5017152;28;20032;-92
2023/06/21 02:02:21;;;;;;;14.00;6.78;;;14.90;99.90;;;;;;5016951;28;20435;-90
2023/06/21 02:04:47;;;;;;;7.88;5.88;;;14.90;99.90;;;;;;5017567;28;20108;-92
2023/06/21 02:07:14;;;;;;;13.55;6.70;;;14.90;99.90;;;;;;5034691;28;20082;-92
2023/06/21 02:09:43;;;;;;;10.27;5.38;;;14.80;99.90;;;;;;5017440;28;20124;-92
2023/06/21 02:12:09;;;;;;;11.93;6.97;;;14.80;99.90;;;;;;5016830;28;20025;-92
2023/06/21 02:14:37;;;;;;;8.63;6.40;;;14.80;99.90;;;;;;5017924;28;20545;-92
2023/06/21 02:17:03;;;;;;;12.25;6.28;;;14.70;99.90;;;;;;5020679;28;20056;-91
2023/06/21 02:19:29;;;;;;;12.65;6.13;;;14.70;99.90;;;;;;5024590;28;20052;-92
2023/06/21 02:21:55;;;;;;;9.55;5.20;;;14.60;99.90;;;;;;5021335;28;20041;-92
2023/06/21 02:24:22;;;;;;;7.82;5.20;;;14.60;99.90;;;;;;5017037;28;20083;-92
2023/06/21 02:26:48;;;;;;;8.75;5.05;;;14.60;99.90;;;;;;5016615;28;20116;-92
2023/06/21 02:29:13;;;;;;;8.30;4.43;;;14.50;99.90;;;;;;5017308;28;20053;-91
2023/06/21 02:31:39;;;;;;;5.90;4.13;;;14.50;99.90;;;;;;5017076;28;20101;-93
2023/06/21 02:34:05;;;;;;;12.10;4.53;;;14.50;99.90;;;;;;5017089;28;20021;-92
2023/06/21 02:36:30;;;;;;;11.02;4.40;;;14.40;99.90;;;;;;5017439;28;20065;-92
2023/06/21 02:38:56;;;;;;;8.60;4.00;;;14.40;99.90;;;;;;5017880;28;20053;-93
2023/06/21 02:41:22;;;;;;;9.57;4.65;;;14.40;99.90;;;;;;5019016;28;20447;-91
2023/06/21 02:43:48;;;;;;;7.25;4.00;;;14.30;99.90;;;;;;5033703;28;20033;-92
2023/06/21 02:46:14;;;;;;;7.97;4.18;;;14.30;99.90;;;;;;5035650;28;20049;-92
2023/06/21 02:48:40;;;;;;;7.85;4.53;;;14.30;99.90;;;;;;5031984;28;20029;-92
2023/06/21 02:51:05;;;;;;;6.57;3.95;;;14.20;99.90;;;;;;5028446;28;20029;-92
2023/06/21 02:53:31;;;;;;;5.43;3.53;;;14.20;99.90;;;;;;5017495;28;20025;-92
2023/06/21 02:55:56;;;;;;;9.05;4.40;;;14.20;99.90;;;;;;5017136;28;20040;-93
2023/06/21 02:58:22;;;;;;;6.93;4.40;;;14.10;99.90;;;;;;5016946;28;20393;-92
2023/06/21 03:00:48;;;;;;;7.53;3.85;;;14.10;99.90;;;;;;5027551;28;20026;-92
2023/06/21 03:03:13;;;;;;;5.90;3.75;;;14.00;99.90;;;;;;5024886;28;20079;-91
2023/06/21 03:05:39;;;;;;;6.13;3.80;;;14.00;99.90;;;;;;5024394;28;20113;-92
2023/06/21 03:08:07;;;;;;;6.05;3.78;;;14.00;99.90;;;;;;5034017;28;20029;-92
2023/06/21 03:10:33;;;;;;;6.10;3.55;;;13.90;99.90;;;;;;5019492;28;20472;-92
2023/06/21 03:12:59;;;;;;;6.18;3.88;;;13.90;99.90;;;;;;4999481;28;20400;-92
2023/06/21 03:15:25;;;;;;;6.45;4.13;;;13.90;99.90;;;;;;5015693;28;20029;-94
2023/06/21 03:17:50;;;;;;;6.95;3.92;;;13.80;99.90;;;;;;5016350;28;20499;-92
2023/06/21 03:20:16;;;;;;;4.57;3.83;;;13.80;99.90;;;;;;5016213;28;20061;-93
2023/06/21 03:22:43;;;;;;;10.18;3.65;;;13.80;99.90;;;;;;5016322;28;20037;-92
2023/06/21 03:25:13;;;;;;;11.20;3.97;;;13.80;99.90;;;;;;5015595;28;20169;-91
2023/06/21 03:27:39;;;;;;;10.48;4.18;;;13.70;99.90;;;;;;5016075;28;20025;-92
2023/06/21 03:30:11;;;;;;;7.80;3.30;;;13.70;99.90;;;;;;5015771;28;20028;-91
2023/06/21 03:32:46;;;;;;;7.90;3.40;;;13.70;99.90;;;;;;5015869;28;20033;-92
2023/06/21 03:35:21;;;;;;;10.45;3.85;;;13.70;99.90;;;;;;5019121;28;20028;-92
2023/06/21 03:37:47;;;;;;;11.75;4.18;;;13.70;99.90;;;;;;5021299;28;20061;-91
2023/06/21 03:40:15;;;;;;;6.70;3.53;;;13.70;99.90;;;;;;5016568;28;20025;-92
2023/06/21 03:42:44;;;;;;;7.45;3.40;;;13.70;99.90;;;;;;5021154;28;20033;-92
2023/06/21 03:45:11;;;;;;;5.68;3.00;;;13.70;99.90;;;;;;5027137;28;20499;-93
2023/06/21 03:47:40;;;;;;;4.63;3.45;;;13.70;99.90;;;;;;5027475;28;20064;-91
2023/06/21 03:50:07;;;;;;;6.63;3.53;;;13.70;99.90;;;;;;5020611;28;20025;-92
2023/06/21 03:52:33;;;;;;;6.10;3.45;;;13.70;99.90;;;;;;5022453;28;20022;-91
2023/06/21 03:54:59;;;;;;;6.00;3.17;;;13.70;99.90;;;;;;5017225;28;20052;-91
2023/06/21 03:57:25;;;;;;;8.95;3.75;;;13.70;99.90;;;;;;5016928;28;20029;-92
2023/06/21 03:59:50;;;;;;;6.03;3.30;;;13.60;99.90;;;;;;5016739;28;20452;-92
2023/06/21 04:02:16;;;;;;;5.07;3.20;;;13.60;99.90;;;;;;5016363;28;20079;-91
2023/06/21 04:04:41;;;;;;;5.50;3.63;;;13.60;99.90;;;;;;5016240;28;20063;-92
2023/06/21 04:07:07;;;;;;;5.93;3.47;;;13.60;99.90;;;;;;5015915;28;20032;-92
2023/06/21 04:09:33;;;;;;;5.55;3.35;;;13.60;99.90;;;;;;5016238;28;20044;-92
2023/06/21 04:11:59;;;;;;;6.22;3.55;;;13.50;99.90;;;;;;5015302;28;20072;-92
2023/06/21 04:14:25;;;;;;;7.63;3.63;;;13.50;99.90;;;;;;5015926;28;20025;-91
2023/06/21 04:16:50;;;;;;;6.82;3.75;;;13.50;99.90;;;;;;5015782;28;20100;-92
2023/06/21 04:19:16;;;;;;;4.82;3.53;;;13.50;99.90;;;;;;5015804;28;20025;-92
2023/06/21 04:21:41;;;;;;;7.25;3.38;;;13.50;99.90;;;;;;5015408;28;20033;-92
2023/06/21 04:24:07;;;;;;;5.65;3.15;;;13.50;99.90;;;;;;5015543;28;20365;-92
2023/06/21 04:26:33;;;;;;;8.27;3.67;;;13.50;99.90;;;;;;5015975;28;20061;-92
2023/06/21 04:29:01;;;;;;;6.97;3.60;;;13.50;99.90;;;;;;5015749;28;20014;-92
2023/06/21 04:31:28;;;;;;;6.20;3.30;;;13.50;99.90;;;;;;5015861;28;20028;-92
2023/06/21 04:33:54;;;;;;;7.63;3.88;;;13.50;99.90;;;;;;5016293;28;20025;-92
2023/06/21 04:36:20;;;;;;;11.13;3.78;;;13.50;99.90;;;;;;5018417;28;20033;-91
2023/06/21 04:38:49;;;;;;;6.93;3.33;;;13.40;99.90;;;;;;5019747;28;20030;-90
2023/06/21 04:41:18;;;;;;;4.63;3.45;;;13.40;99.90;;;;;;5019217;28;20022;-92
2023/06/21 04:43:44;;;;;;;7.18;3.22;;;13.40;99.90;;;;;;5018873;28;20021;-91
2023/06/21 04:46:10;;;;;;;11.35;3.58;;;13.40;99.90;;;;;;5017105;28;20041;-92
2023/06/21 04:48:37;;;;;;;5.50;3.13;;;13.40;99.90;;;;;;5015537;28;20029;-92
2023/06/21 04:51:03;;;;;;;6.95;4.60;;;13.40;99.90;;;;;;5015138;28;20029;-92
2023/06/21 04:53:29;;;;;;;11.30;3.88;;;13.40;99.90;;;;;;5016407;28;20026;-92
2023/06/21 04:55:58;;;;;;;7.03;3.90;;;13.40;99.90;;;;;;5036784;28;20491;-91
2023/06/21 04:58:27;;;;;;;8.43;3.95;;;13.50;99.90;;;;;;5036113;28;20025;-91
2023/06/21 05:00:52;;;;;;;6.47;3.58;;;13.50;99.90;;;;;;5017253;28;20021;-92
2023/06/21 05:03:18;;;;;;;7.60;3.88;;;13.50;99.90;;;;;;5015364;28;20033;-92
2023/06/21 05:05:44;;;;;;;5.80;3.90;;;13.50;99.90;;;;;;5015262;28;20026;-91
2023/06/21 05:08:10;;;;;;;7.80;4.78;;;13.60;99.90;;;;;;5017674;28;20025;-91
2023/06/21 05:10:35;;;;;;;5.53;3.88;;;13.70;99.90;;;;;;5018496;28;20373;-91
2023/06/21 05:13:01;;;;;;;6.32;3.00;;;13.70;99.90;;;;;;5018806;28;20034;-92
2023/06/21 05:15:27;;;;;;;7.70;3.90;;;13.80;99.90;;;;;;5018425;28;20072;-92
2023/06/21 05:17:52;;;;;;;8.20;3.53;;;13.90;99.90;;;;;;5018393;28;20117;-92
2023/06/21 05:20:20;;;;;;;7.18;3.55;;;13.90;99.90;;;;;;5018787;28;20435;-92
2023/06/21 05:22:46;;;;;;;10.77;3.95;;;14.00;99.90;;;;;;5018529;28;20029;-92
2023/06/21 05:25:11;;;;;;;7.45;3.08;;;14.10;99.90;;;;;;5020803;28;20104;-91
2023/06/21 05:27:37;;;;;;;7.07;3.05;;;14.10;99.90;;;;;;5023863;28;20025;-92
2023/06/21 05:30:04;;;;;;;10.65;3.95;;;14.20;99.90;;;;;;5021151;28;20112;-92
2023/06/21 05:32:30;;;;;;;5.25;3.38;;;14.30;99.90;;;;;;5018356;28;20029;-92
2023/06/21 05:34:55;;;;;;;7.82;4.15;;;14.40;99.90;;;;;;5019484;28;20025;-92
2023/06/21 05:37:22;;;;;;;4.82;3.65;;;14.40;99.90;;;;;;5019224;28;20125;-93
2023/06/21 05:39:47;;;;;;;7.97;3.90;;;14.50;99.90;;;;;;5023602;28;20091;-93
2023/06/21 05:42:13;;;;;;;6.75;4.10;;;14.50;99.90;;;;;;5039623;28;20042;-93
2023/06/21 05:44:42;;;;;;;4.70;3.03;;;14.50;99.90;;;;;;5018246;28;20026;-92
2023/06/21 05:47:07;;;;;;;5.65;3.83;;;14.60;99.90;;;;;;5015435;28;20041;-93
2023/06/21 05:49:33;;;;;;;6.70;3.78;;;14.60;99.90;;;;;;5018091;28;20405;-93
2023/06/21 05:51:59;;;;;;;9.00;3.28;;;14.70;99.90;;;;;;5018677;28;20404;-92
2023/06/21 05:54:25;;;;;;;4.93;3.17;;;14.70;99.90;;;;;;5019291;28;20025;-93
2023/06/21 05:56:52;;;;;;;6.63;4.05;;;14.80;99.90;;;;;;5019676;28;20021;-92
2023/06/21 05:59:17;;;;;;;9.45;4.20;;;14.80;99.90;;;;;;5019283;28;20030;-92
2023/06/21 06:01:43;;;;;;;5.75;3.22;;;14.90;99.90;;;;;;5018200;28;20030;-93
2023/06/21 06:04:09;;;;;;;8.15;4.47;;;15.00;99.90;;;;;;5021295;28;20097;-92
2023/06/21 06:06:39;;;;;;;5.07;3.05;;;15.10;99.90;;;;;;5029321;28;20021;-92
2023/06/21 06:09:06;;;;;;;6.50;3.20;;;15.20;99.90;;;;;;5029105;28;20036;-92
2023/06/21 06:11:31;;;;;;;6.50;3.08;;;15.30;99.90;;;;;;5019849;28;20025;-92
2023/06/21 06:13:57;;;;;;;6.25;3.88;;;15.30;99.90;;;;;;5035297;28;20112;-93
2023/06/21 06:16:23;;;;;;;6.75;3.65;;;15.40;99.90;;;;;;5017508;28;20041;-93
2023/06/21 06:18:49;;;;;;;7.82;3.38;;;15.50;99.90;;;;;;5017840;28;20033;-93
2023/06/21 06:21:14;;;;;;;6.82;3.20;;;15.60;99.90;;;;;;5017530;28;20476;-93
2023/06/21 06:23:40;;;;;;;6.93;3.28;;;15.70;99.90;;;;;;5018076;28;20029;-94
2023/06/21 06:26:06;;;;;;;6.47;3.50;;;15.80;99.90;;;;;;5018700;28;20388;-93
2023/06/21 06:28:32;;;;;;;4.75;2.70;;;15.80;99.90;;;;;;5018739;28;20029;-93
2023/06/21 06:30:57;;;;;;;5.80;3.40;;;15.90;99.90;;;;;;5017435;28;20440;-92
2023/06/21 06:33:23;;;;;;;5.80;3.30;;;15.90;99.90;;;;;;5018382;28;20111;-91
2023/06/21 06:35:49;;;;;;;5.53;3.08;;;16.00;99.90;;;;;;5018789;28;20522;-93
2023/06/21 06:38:14;;;;;;;7.38;3.65;;;16.00;99.90;;;;;;5023972;28;20385;-91
2023/06/21 06:40:40;;;;;;;6.25;3.30;;;16.10;99.90;;;;;;5021974;28;20487;-92
2023/06/21 06:43:06;;;;;;;10.60;3.15;;;16.20;99.90;;;;;;5017696;28;20056;-90
2023/06/21 06:45:32;;;;;;;7.18;3.50;;;16.30;99.90;;;;;;5020290;28;20535;-91
2023/06/21 06:47:58;;;;;;;5.38;2.72;;;16.40;99.90;;;;;;5029144;28;20025;-92
2023/06/21 06:50:23;;;;;;;7.53;3.85;;;16.40;99.90;;;;;;5028910;28;20482;-93
2023/06/21 06:52:49;;;;;;;6.25;2.55;;;16.50;99.90;;;;;;5017498;28;20025;-92
2023/06/21 06:55:15;;;;;;;11.07;3.33;;;16.50;99.90;;;;;;5015787;28;20551;-91
2023/06/21 06:57:41;;;;;;;5.82;2.78;;;16.60;99.90;;;;;;5026235;28;20048;-94
2023/06/21 07:00:12;;;;;;;4.75;3.10;;;16.70;99.90;;;;;;5022673;28;20044;-93
2023/06/21 07:02:37;;;;;;;;;;;16.70;99.90;;;;;;5023190;28;20037;-93
2023/06/21 07:05:03;;;;;;;8.60;2.90;;;16.80;99.90;;;;;;5027871;28;19905;-93
2023/06/21 07:07:29;;;;;;;7.53;2.92;;;16.90;99.90;;;;;;5020653;28;20116;-92
2023/06/21 07:09:54;;;;;;;6.88;3.28;;;16.90;99.90;;;;;;5023865;28;20048;-94
2023/06/21 07:12:20;;;;;;;5.35;2.42;;;16.90;99.90;;;;;;5020300;28;20025;-92
2023/06/21 07:14:46;;;;;;;3.65;2.65;;;16.90;99.90;;;;;;5017887;28;20476;-92
2023/06/21 07:17:11;;;;;;;5.80;2.70;;;17.00;99.90;;;;;;5017475;28;20034;-92
2023/06/21 07:19:38;;;;;;;4.20;2.80;;;17.00;99.90;;;;;;5017660;28;20029;-93
2023/06/21 07:22:04;;;;;;;5.72;2.40;;;17.00;99.90;;;;;;5026664;28;20050;-93
2023/06/21 07:24:30;;;;;;;4.95;2.72;;;17.00;99.90;;;;;;5031179;28;20025;-93
2023/06/21 07:26:56;;;;;;;4.72;2.90;;;17.10;99.90;;;;;;5025100;28;20033;-94
2023/06/21 07:29:22;;;;;;;6.45;2.72;;;17.10;99.90;;;;;;5025893;28;20067;-93
2023/06/21 07:31:48;;;;;;;7.55;2.60;;;17.10;99.90;;;;;;5034396;28;20060;-92
2023/06/21 07:34:14;;;;;;;8.70;2.90;;;17.20;99.90;;;;;;5018292;28;20030;-90
2023/06/21 07:36:40;;;;;;;4.05;2.80;;;17.20;99.90;;;;;;5016772;28;20022;-90
2023/06/21 07:39:06;;;;;;;7.40;2.80;;;17.30;99.90;;;;;;5015662;28;20060;-91
2023/06/21 07:41:31;;;;;;;3.60;2.47;;;17.40;99.90;;;;;;5017507;28;20049;-90
2023/06/21 07:43:57;;;;;;;4.18;2.67;;;17.40;99.90;;;;;;5026035;28;20025;-92
2023/06/21 07:46:23;;;;;;;5.18;2.78;;;17.40;99.90;;;;;;5018835;28;20045;-91
2023/06/21 07:48:48;;;;;;;5.68;2.60;;;17.40;99.90;;;;;;5016218;28;20032;-92
2023/06/21 07:51:14;;;;;;;4.63;2.47;;;17.40;99.90;;;;;;5018195;28;20063;-91
2023/06/21 07:53:39;;;;;;;8.27;2.50;;;17.40;99.90;;;;;;5023319;28;20392;-91
2023/06/21 07:56:05;;;;;;;5.40;2.67;;;17.50;99.90;;;;;;5025563;28;20060;-92
2023/06/21 07:58:31;;;;;;;9.52;2.85;;;17.50;99.90;;;;;;5015712;28;20035;-91
2023/06/21 08:00:56;;;;;;;3.97;2.50;;;17.50;99.90;;;;;;5017405;28;20028;-92
2023/06/21 08:03:22;;;;;;;4.05;2.53;;;17.50;99.90;;;;;;5020629;28;20033;-92
2023/06/21 08:05:48;;;;;;;8.90;2.50;;;17.60;99.90;;;;;;5027225;28;20049;-91
2023/06/21 08:08:17;;;;;;;5.97;2.58;;;17.70;99.90;;;;;;5030680;28;20382;-90
2023/06/21 08:10:43;;;;;;;5.13;2.30;;;17.80;99.90;;;;;;5032457;28;20045;-90
2023/06/21 08:13:08;;;;;;;6.20;2.53;;;17.90;99.90;;;;;;5031247;28;20028;-91
2023/06/21 08:15:34;;;;;;;2.90;2.30;;;17.80;99.90;;;;;;5032050;28;20044;-92
2023/06/21 08:18:00;;;;;;;3.92;2.55;;;17.90;99.90;;;;;;5033659;28;20025;-91
2023/06/21 08:20:25;;;;;;;6.75;2.53;;;17.90;99.90;;;;;;5024275;28;20480;-91
2023/06/21 08:22:51;;;;;;;5.68;2.63;;;18.00;99.90;;;;;;5027459;28;20420;-90
2023/06/21 08:25:17;;;;;;;3.92;2.28;;;18.10;99.90;;;;;;5021719;28;20028;-90
2023/06/21 08:27:42;;;;;;;5.72;2.50;;;18.20;99.90;;;;;;5020333;28;20476;-89
2023/06/21 08:30:09;;;;;;;7.00;2.75;;;18.30;99.90;;;;;;5027254;28;20075;-90
2023/06/21 08:32:34;;;;;;;4.90;2.58;;;18.50;99.90;;;;;;5026204;28;20127;-90
2023/06/21 08:35:00;;;;;;;3.40;2.05;;;18.50;99.90;;;;;;5030664;28;20053;-91
2023/06/21 08:37:26;;;;;;;4.05;2.40;;;18.60;99.90;;;;;;5030498;28;20182;-90
2023/06/21 08:39:52;;;;;;;4.85;2.50;;;18.70;99.90;;;;;;5027370;28;20032;-90
2023/06/21 08:42:23;;;;;;;3.03;2.13;;;18.80;99.90;;;;;;5032994;28;20037;-90
2023/06/21 08:45:12;;;;;;;5.60;2.63;;;18.90;99.90;;;;;;5039040;28;20369;-90
2023/06/21 08:47:39;;;;;;;3.75;2.20;;;19.10;99.90;;;;;;5038576;28;20128;-89
2023/06/21 08:50:05;;;;;;;6.63;2.10;;;19.20;99.90;;;;;;5038414;28;20017;-91
2023/06/21 08:52:32;;;;;;;8.50;2.53;;;19.30;99.90;;;;;;5038671;28;20029;-89
2023/06/21 08:55:03;;;;;;;6.00;2.30;;;19.30;99.90;;;;;;5032662;28;20108;-88
2023/06/21 08:57:32;;;;;;;7.40;1.83;;;19.40;99.90;;;;;;5024871;28;20488;-89
2023/06/21 09:00:01;;;;;;;4.13;2.28;;;19.40;99.90;;;;;;5026634;28;20048;-89
2023/06/21 09:02:35;;;;;;;4.53;2.20;;;19.50;99.90;;;;;;5030356;28;20037;-89
2023/06/21 09:05:09;;;;;;;4.65;2.20;;;19.70;99.90;;;;;;5038854;28;20357;-90
2023/06/21 09:07:36;;;;;;;4.90;2.42;;;19.80;99.90;;;;;;5038212;28;20469;-90
2023/06/21 09:10:03;;;;;;;4.00;2.10;;;19.70;99.90;;;;;;4998402;28;20027;-91
2023/06/21 09:12:35;;;;;;;3.63;2.25;;;19.80;99.90;;;;;;5006015;28;20091;-89
2023/06/21 09:15:01;;;;;;;3.63;2.00;;;19.80;99.90;;;;;;5036534;28;20029;-92
2023/06/21 09:17:27;;;;;;;3.97;2.55;;;19.80;99.90;;;;;;5020096;28;20373;-92
2023/06/21 09:19:53;;;;;;;6.85;2.05;;;19.80;99.90;;;;;;5021115;28;20022;-94
2023/06/21 09:22:24;;;;;;;4.68;2.42;;;19.90;99.90;;;;;;5022832;28;20034;-92
2023/06/21 09:24:50;;;;;;;4.65;1.98;;;20.00;99.90;;;;;;5021501;28;20389;-89
2023/06/21 09:27:16;;;;;;;2.90;2.28;;;19.90;99.90;;;;;;5018563;28;20032;-90
2023/06/21 09:29:42;;;;;;;4.20;2.20;;;20.00;99.90;;;;;;5017943;28;20022;-91
2023/06/21 09:32:08;;;;;;;5.20;2.40;;;20.10;99.90;;;;;;5017192;28;20025;-91
2023/06/21 09:34:33;;;;;;;5.53;2.75;;;20.30;99.90;;;;;;5018132;28;20021;-91
2023/06/21 09:36:59;;;;;;;4.85;2.47;;;20.50;99.90;;;;;;5018075;28;20029;-91
2023/06/21 09:39:27;;;;;;;4.72;2.50;;;20.70;99.90;;;;;;5033657;28;20021;-92
2023/06/21 09:41:53;;;;;;;5.05;2.35;;;20.80;99.90;;;;;;5017693;28;20095;-91
2023/06/21 09:44:20;;;;;;;4.38;2.30;;;20.80;99.90;;;;;;5021366;28;20048;-90
2023/06/21 09:46:57;;;;;;;4.47;2.60;;;20.90;99.90;;;;;;5018444;28;20362;-91
2023/06/21 09:49:26;;;;;;;5.95;3.05;;;20.90;99.90;;;;;;5017598;28;20052;-91
2023/06/21 09:51:52;;;;;;;6.38;2.60;;;20.90;99.90;;;;;;5017450;28;20028;-90
2023/06/21 09:54:18;;;;;;;4.57;2.35;;;21.00;99.90;;;;;;5012664;28;20040;-90
2023/06/21 09:56:45;;;;;;;6.10;2.58;;;21.20;99.90;;;;;;5026340;28;20391;-91
2023/06/21 09:59:19;;;;;;;4.63;2.65;;;21.50;99.80;;;;;;5019185;28;20029;-91
2023/06/21 10:01:50;;;;;;;4.13;2.78;;;21.60;99.30;;;;;;5016337;28;20033;-89
2023/06/21 10:04:17;;;;;;;5.30;2.58;;;21.60;98.80;;;;;;5017684;28;20028;-92
2023/06/21 10:06:49;;;;;;;4.65;2.50;;;21.60;98.60;;;;;;5029115;28;20071;-93
2023/06/21 10:09:16;;;;;;;6.78;2.70;;;21.60;98.30;;;;;;5027530;28;20022;-92
2023/06/21 10:11:45;;;;;;;4.13;2.45;;;21.70;97.80;;;;;;5024438;28;20033;-94
2023/06/21 10:14:29;;;;;;;3.42;2.25;;;21.70;97.60;;;;;;5021486;28;20053;-92
2023/06/21 10:16:55;;;;;;;3.20;2.30;;;21.70;97.20;;;;;;5019639;28;20029;-93
2023/06/21 10:38:05;;;;;;;3.58;2.28;;;22.50;94.00;;;;;;5020796;28;20029;-93
2023/06/21 10:40:35;;;;;;;3.25;2.00;;;22.80;93.40;;;;;;5005250;28;20049;-72
2023/06/21 10:43:01;;;;;;;3.83;2.65;;;23.00;92.50;;;;;;5013806;28;20360;-72
2023/06/21 10:45:30;;;;;;;3.33;2.00;;;23.20;91.70;;;;;;5012240;28;20030;-71
2023/06/21 10:47:57;;;;;;;3.30;1.90;;;23.50;90.90;;;;;;5013336;28;20353;-73
2023/06/21 10:50:24;;;;;;;5.38;2.00;;;23.70;90.00;;;;;;5013065;28;20091;-72
2023/06/21 10:52:58;;;;;;;3.70;1.90;;;23.70;87.30;;;;;;5012903;28;20030;-72
2023/06/21 10:55:24;;;;;;;2.05;1.73;;;23.70;85.60;;;;;;5011983;28;20029;-70
2023/06/21 10:57:53;;;;;;;6.32;2.08;;;23.80;84.40;;;;;;5013092;28;20084;-72
2023/06/21 11:00:21;;;;;;;5.15;2.20;;;23.80;84.20;;;;;;4995190;28;20034;-73
2023/06/21 11:02:47;;;;;;;3.15;2.28;;;23.80;82.90;;;;;;5012453;28;20403;-70
2023/06/21 11:05:20;;;;;;;4.97;2.08;;;23.80;82.30;;;;;;5013037;28;20488;-71
2023/06/21 11:07:59;;;;;;;3.65;2.00;;;23.90;82.60;;;;;;5013149;28;20037;-70
2023/06/21 11:10:43;;;;;;;5.80;2.22;;;24.00;82.30;;;;;;5012912;28;20030;-69
2023/06/21 11:13:10;;;;;;;4.20;2.15;;;24.20;82.50;;;;;;5013383;28;20420;-70
2023/06/21 11:15:40;;;;;;;3.65;2.20;;;24.30;81.40;;;;;;5013237;28;20034;-70
2023/06/21 11:18:08;;;;;;;4.50;2.22;;;24.40;81.20;;;;;;5013165;28;20490;-69
2023/06/21 11:20:55;;;;;;;4.22;2.45;;;24.60;81.30;;;;;;5012402;28;20089;-70
2023/06/21 11:23:23;;;;;;;6.53;2.80;;;24.60;80.60;;;;;;5012896;28;20038;-69
2023/06/21 11:25:53;;;;;;;4.57;2.42;;;24.70;80.30;;;;;;5012331;28;20065;-70
2023/06/21 11:28:29;;;;;;;5.55;2.55;;;24.90;79.90;;;;;;4993183;28;20038;-71
2023/06/21 11:31:01;;;;;;;5.43;2.45;;;25.00;79.10;;;;;;5007985;28;20030;-69
2023/06/21 11:33:31;;;;;;;5.47;2.22;;;25.00;78.00;;;;;;5012710;28;20083;-72
2023/06/21 11:36:06;;;;;;;;;;;25.00;78.00;;;;;;5008139;28;20031;-70
2023/06/21 11:38:34;;;;;;;5.20;1.70;;;24.90;78.10;;;;;;4993068;28;19922;-69
2023/06/21 11:41:01;;;;;;;4.25;2.03;;;24.80;78.10;;;;;;4997011;28;20051;-69
2023/06/21 11:43:27;;;;;;;4.55;2.85;;;24.60;77.90;;;;;;5012483;28;20478;-69
2023/06/21 11:46:00;;;;;;;6.15;2.55;;;24.50;78.40;;;;;;5012498;28;20057;-69
2023/06/21 11:48:30;;;;;;;3.55;2.35;;;24.30;78.30;;;;;;5011497;28;20072;-69
2023/06/21 11:51:07;;;;;;;6.13;2.27;;;24.20;79.20;;;;;;5012426;28;20030;-69
2023/06/21 11:53:42;;;;;;;5.93;2.45;;;24.10;79.30;;;;;;5012352;28;20281;-71
2023/06/21 11:56:16;;;;;;;4.57;2.58;;;24.00;79.30;;;;;;5012204;28;20036;-71
2023/06/21 11:58:42;;;;;;;4.40;2.42;;;24.00;79.60;;;;;;5012502;28;20753;-69
2023/06/21 12:01:07;;;;;;;3.03;2.35;;;23.90;80.10;;;;;;5012410;28;20034;-70
2023/06/21 12:03:33;;;;;;;4.07;2.30;;;23.80;80.60;;;;;;5013762;28;20041;-69
2023/06/21 12:06:01;;;;;;;5.50;2.50;;;23.60;81.00;;;;;;5016272;28;20044;-68
2023/06/21 12:08:35;;;;;;;3.60;2.30;;;23.40;81.80;;;;;;5016430;28;20034;-71
2023/06/21 12:11:06;;;;;;;10.00;3.15;;;23.00;83.40;;;;;;5016454;28;20072;-79
2023/06/21 12:13:34;;;;;;;4.38;2.65;;;22.50;86.60;;;;;;5016527;28;20037;-74
2023/06/21 12:16:02;;;;;;;5.20;1.95;;;22.10;89.50;;;;;;5015913;28;20033;-74
2023/06/21 12:18:29;;;;;;;3.08;1.80;;;21.70;91.00;;;;;;5016542;28;20026;-74
2023/06/21 12:20:58;;;;;;;2.22;1.60;;;21.40;92.30;;;;;;5015907;28;20115;-76
2023/06/21 12:23:25;;;;;;;2.83;1.70;;;21.10;93.40;;;;;;5016324;28;20034;-72
2023/06/21 12:25:53;;;;;;;3.25;1.75;;;20.80;94.50;;;;;;5015395;28;20030;-74
2023/06/21 12:28:23;;;;;;;4.00;2.17;;;20.70;95.50;;;;;;4998353;28;20391;-72
2023/06/21 12:30:56;;;;;;;4.75;2.28;;;20.50;96.60;;;;;;5016284;28;20072;-74
2023/06/21 12:33:38;;;;;;;3.58;2.42;;;20.30;97.70;;;;;;5015916;28;20065;-74
2023/06/21 12:36:28;;;;;;;4.90;2.03;;;20.30;98.80;;;;;;5014756;28;20369;-75
2023/06/21 12:38:54;;;;;;;3.72;2.60;;;20.30;99.80;;;;;;5015548;28;20164;-73
2023/06/21 12:41:22;;;;;;;3.60;2.28;;;20.30;99.90;;;;;;5014062;28;20156;-73
2023/06/21 12:43:49;;;;;;;4.00;2.28;;;20.40;99.90;;;;;;5015027;28;20060;-76
2023/06/21 12:46:16;;;;;;;6.47;2.40;;;20.40;99.90;;;;;;5015704;28;20037;-73
2023/06/21 12:48:51;;;;;;;6.80;2.20;;;20.60;99.90;;;;;;5022374;28;20040;-74
2023/06/21 12:51:31;;;;;;;3.72;2.65;;;20.80;99.90;;;;;;5016132;28;20026;-74
2023/06/21 12:54:04;;;;;;;3.55;2.20;;;21.10;99.90;;;;;;5016289;28;20030;-75
2023/06/21 12:56:38;;;;;;;3.55;2.15;;;21.30;99.90;;;;;;5016144;28;20049;-75
2023/06/21 12:59:05;;;;;;;3.65;2.40;;;21.50;99.90;;;;;;5014412;28;20487;-79
2023/06/21 13:01:32;;;;;;;3.47;2.55;;;21.60;99.90;;;;;;5015565;28;20404;-83
2023/06/21 13:03:59;;;;;;;3.97;2.17;;;21.60;99.90;;;;;;4998428;28;20040;-76
2023/06/21 13:06:26;;;;;;;2.95;1.90;;;21.70;99.90;;;;;;5015374;28;20030;-76